sensor_id;sensor_type;location;lat;lon;timestamp;P1;durP1;ratioP1;P2;durP2;ratioP2
50781;SDS011;36749;37.428;-121.972;2023-08-06T00:00:49;18.90;;;5.63;;
50781;SDS011;36749;37.428;-121.972;2023-08-06T00:03:15;11.15;;;5.68;;
50781;SDS011;36749;37.428;-121.972;2023-08-06T00:05:42;12.45;;;5.63;;
50781;SDS011;36749;37.428;-121.972;2023-08-06T00:08:09;17.45;;;6.32;;
50781;SDS011;36749;37.428;-121.972;2023-08-06T00:10:35;13.30;;;5.32;;
50781;SDS011;36749;37.428;-121.972;2023-08-06T00:13:01;13.63;;;5.45;;
50781;SDS011;36749;37.428;-121.972;2023-08-06T00:15:27;17.52;;;5.93;;
50781;SDS011;36749;37.428;-121.972;2023-08-06T00:17:53;13.38;;;5.13;;
50781;SDS011;36749;37.428;-121.972;2023-08-06T00:20:20;13.57;;;6.50;;
50781;SDS011;36749;37.428;-121.972;2023-08-06T00:22:46;15.45;;;5.90;;
50781;SDS011;36749;37.428;-121.972;2023-08-06T00:25:12;15.38;;;5.53;;
50781;SDS011;36749;37.428;-121.972;2023-08-06T00:27:38;12.75;;;5.82;;
50781;SDS011;36749;37.428;-121.972;2023-08-06T00:30:05;10.80;;;5.45;;
50781;SDS011;36749;37.428;-121.972;2023-08-06T00:32:31;16.48;;;5.70;;
50781;SDS011;36749;37.428;-121.972;2023-08-06T00:34:58;15.95;;;5.97;;
50781;SDS011;36749;37.428;-121.972;2023-08-06T00:37:24;22.33;;;6.10;;
50781;SDS011;36749;37.428;-121.972;2023-08-06T00:39:50;13.43;;;5.28;;
50781;SDS011;36749;37.428;-121.972;2023-08-06T00:42:16;22.88;;;6.30;;
50781;SDS011;36749;37.428;-121.972;2023-08-06T00:44:46;13.77;;;6.05;;
50781;SDS011;36749;37.428;-121.972;2023-08-06T00:47:12;13.55;;;5.00;;
50781;SDS011;36749;37.428;-121.972;2023-08-06T00:49:39;10.07;;;4.93;;
50781;SDS011;36749;37.428;-121.972;2023-08-06T00:52:05;9.60;;;4.95;;
50781;SDS011;36749;37.428;-121.972;2023-08-06T00:54:33;9.50;;;4.70;;
50781;SDS011;36749;37.428;-121.972;2023-08-06T00:57:00;11.00;;;5.32;;
50781;SDS011;36749;37.428;-121.972;2023-08-06T00:59:27;10.32;;;5.18;;
50781;SDS011;36749;37.428;-121.972;2023-08-06T01:01:54;9.98;;;5.10;;
50781;SDS011;36749;37.428;-121.972;2023-08-06T01:04:20;15.13;;;4.78;;
50781;SDS011;36749;37.428;-121.972;2023-08-06T01:06:47;12.95;;;5.35;;
50781;SDS011;36749;37.428;-121.972;2023-08-06T01:17:56;11.90;;;5.15;;
50781;SDS011;36749;37.428;-121.972;2023-08-06T01:20:27;13.55;;;5.57;;
50781;SDS011;36749;37.428;-121.972;2023-08-06T01:22:54;10.27;;;4.15;;
50781;SDS011;36749;37.428;-121.972;2023-08-06T01:25:20;13.73;;;7.43;;
50781;SDS011;36749;37.428;-121.972;2023-08-06T01:27:48;10.52;;;4.53;;
50781;SDS011;36749;37.428;-121.972;2023-08-06T01:30:20;13.43;;;4.78;;
50781;SDS011;36749;37.428;-121.972;2023-08-06T01:32:53;12.02;;;4.68;;
50781;SDS011;36749;37.428;-121.972;2023-08-06T01:35:25;11.93;;;4.82;;
50781;SDS011;36749;37.428;-121.972;2023-08-06T01:37:53;13.68;;;5.00;;
50781;SDS011;36749;37.428;-121.972;2023-08-06T01:40:21;10.93;;;4.53;;
50781;SDS011;36749;37.428;-121.972;2023-08-06T01:42:48;14.95;;;5.93;;
50781;SDS011;36749;37.428;-121.972;2023-08-06T01:45:14;11.25;;;5.18;;
50781;SDS011;36749;37.428;-121.972;2023-08-06T01:47:40;10.07;;;4.35;;
50781;SDS011;36749;37.428;-121.972;2023-08-06T01:50:06;19.40;;;6.55;;
50781;SDS011;36749;37.428;-121.972;2023-08-06T01:52:33;16.38;;;4.65;;
50781;SDS011;36749;37.428;-121.972;2023-08-06T01:54:59;17.40;;;5.32;;
50781;SDS011;36749;37.428;-121.972;2023-08-06T01:57:25;12.05;;;4.35;;
50781;SDS011;36749;37.428;-121.972;2023-08-06T01:59:51;15.45;;;4.68;;
50781;SDS011;36749;37.428;-121.972;2023-08-06T02:02:17;11.55;;;4.25;;
50781;SDS011;36749;37.428;-121.972;2023-08-06T02:04:44;13.00;;;4.50;;
50781;SDS011;36749;37.428;-121.972;2023-08-06T02:07:10;13.95;;;5.15;;
50781;SDS011;36749;37.428;-121.972;2023-08-06T02:09:36;12.50;;;4.85;;
50781;SDS011;36749;37.428;-121.972;2023-08-06T02:12:02;11.80;;;4.55;;
50781;SDS011;36749;37.428;-121.972;2023-08-06T02:14:29;13.93;;;5.85;;
50781;SDS011;36749;37.428;-121.972;2023-08-06T02:16:55;17.15;;;6.95;;
50781;SDS011;36749;37.428;-121.972;2023-08-06T02:19:21;16.10;;;5.70;;
50781;SDS011;36749;37.428;-121.972;2023-08-06T02:21:47;14.25;;;5.13;;
50781;SDS011;36749;37.428;-121.972;2023-08-06T02:24:13;14.52;;;5.47;;
50781;SDS011;36749;37.428;-121.972;2023-08-06T02:26:40;11.85;;;5.28;;
50781;SDS011;36749;37.428;-121.972;2023-08-06T02:29:06;14.27;;;4.80;;
50781;SDS011;36749;37.428;-121.972;2023-08-06T02:31:32;14.30;;;5.25;;
50781;SDS011;36749;37.428;-121.972;2023-08-06T02:33:58;16.00;;;4.82;;
50781;SDS011;36749;37.428;-121.972;2023-08-06T02:36:24;16.70;;;4.82;;
50781;SDS011;36749;37.428;-121.972;2023-08-06T02:38:54;26.75;;;5.95;;
50781;SDS011;36749;37.428;-121.972;2023-08-06T02:41:21;23.30;;;5.88;;
50781;SDS011;36749;37.428;-121.972;2023-08-06T02:43:47;15.48;;;5.13;;
50781;SDS011;36749;37.428;-121.972;2023-08-06T02:46:13;13.50;;;4.53;;
50781;SDS011;36749;37.428;-121.972;2023-08-06T02:48:39;16.30;;;4.63;;
50781;SDS011;36749;37.428;-121.972;2023-08-06T02:51:05;16.05;;;4.93;;
50781;SDS011;36749;37.428;-121.972;2023-08-06T02:53:32;13.52;;;4.75;;
50781;SDS011;36749;37.428;-121.972;2023-08-06T02:55:58;12.93;;;4.38;;
50781;SDS011;36749;37.428;-121.972;2023-08-06T02:58:24;13.90;;;4.72;;
50781;SDS011;36749;37.428;-121.972;2023-08-06T03:01:00;17.63;;;5.93;;
50781;SDS011;36749;37.428;-121.972;2023-08-06T03:03:28;15.82;;;4.90;;
50781;SDS011;36749;37.428;-121.972;2023-08-06T03:05:55;80.22;;;11.77;;
50781;SDS011;36749;37.428;-121.972;2023-08-06T03:08:22;21.05;;;5.82;;
50781;SDS011;36749;37.428;-121.972;2023-08-06T03:10:51;17.35;;;6.28;;
50781;SDS011;36749;37.428;-121.972;2023-08-06T03:13:17;17.15;;;5.60;;
50781;SDS011;36749;37.428;-121.972;2023-08-06T03:15:51;20.25;;;6.53;;
50781;SDS011;36749;37.428;-121.972;2023-08-06T03:18:19;16.00;;;5.50;;
50781;SDS011;36749;37.428;-121.972;2023-08-06T03:20:46;18.85;;;6.15;;
50781;SDS011;36749;37.428;-121.972;2023-08-06T03:23:12;18.85;;;6.28;;
50781;SDS011;36749;37.428;-121.972;2023-08-06T03:25:38;18.52;;;5.95;;
50781;SDS011;36749;37.428;-121.972;2023-08-06T03:28:05;19.08;;;6.28;;
50781;SDS011;36749;37.428;-121.972;2023-08-06T03:30:31;26.88;;;7.10;;
50781;SDS011;36749;37.428;-121.972;2023-08-06T03:32:57;23.05;;;6.65;;
50781;SDS011;36749;37.428;-121.972;2023-08-06T03:35:23;21.60;;;7.38;;
50781;SDS011;36749;37.428;-121.972;2023-08-06T03:37:49;20.75;;;6.28;;
50781;SDS011;36749;37.428;-121.972;2023-08-06T03:40:15;21.90;;;6.18;;
50781;SDS011;36749;37.428;-121.972;2023-08-06T03:42:42;24.35;;;7.13;;
50781;SDS011;36749;37.428;-121.972;2023-08-06T03:45:08;34.95;;;7.68;;
50781;SDS011;36749;37.428;-121.972;2023-08-06T03:47:35;25.30;;;6.63;;
50781;SDS011;36749;37.428;-121.972;2023-08-06T03:50:03;20.88;;;6.45;;
50781;SDS011;36749;37.428;-121.972;2023-08-06T03:52:30;26.02;;;7.38;;
50781;SDS011;36749;37.428;-121.972;2023-08-06T03:54:56;25.48;;;6.82;;
50781;SDS011;36749;37.428;-121.972;2023-08-06T03:57:22;31.30;;;7.22;;
50781;SDS011;36749;37.428;-121.972;2023-08-06T03:59:49;25.30;;;6.78;;
50781;SDS011;36749;37.428;-121.972;2023-08-06T04:02:15;36.40;;;8.88;;
50781;SDS011;36749;37.428;-121.972;2023-08-06T04:04:41;26.55;;;6.57;;
50781;SDS011;36749;37.428;-121.972;2023-08-06T04:07:07;23.95;;;7.65;;
50781;SDS011;36749;37.428;-121.972;2023-08-06T04:09:34;25.17;;;5.70;;
50781;SDS011;36749;37.428;-121.972;2023-08-06T04:12:01;23.50;;;5.97;;
50781;SDS011;36749;37.428;-121.972;2023-08-06T04:14:29;20.00;;;6.20;;
50781;SDS011;36749;37.428;-121.972;2023-08-06T04:16:56;22.73;;;6.35;;
50781;SDS011;36749;37.428;-121.972;2023-08-06T04:19:22;20.45;;;5.95;;
50781;SDS011;36749;37.428;-121.972;2023-08-06T04:21:48;21.33;;;6.13;;
50781;SDS011;36749;37.428;-121.972;2023-08-06T04:24:14;20.58;;;5.97;;
50781;SDS011;36749;37.428;-121.972;2023-08-06T04:26:40;20.70;;;6.05;;
50781;SDS011;36749;37.428;-121.972;2023-08-06T04:29:07;20.85;;;5.35;;
50781;SDS011;36749;37.428;-121.972;2023-08-06T04:31:33;20.95;;;5.95;;
50781;SDS011;36749;37.428;-121.972;2023-08-06T04:33:59;22.73;;;6.68;;
50781;SDS011;36749;37.428;-121.972;2023-08-06T04:36:27;23.95;;;6.75;;
50781;SDS011;36749;37.428;-121.972;2023-08-06T04:38:53;22.10;;;6.30;;
50781;SDS011;36749;37.428;-121.972;2023-08-06T04:41:20;21.52;;;5.38;;
50781;SDS011;36749;37.428;-121.972;2023-08-06T04:43:46;25.75;;;6.68;;
50781;SDS011;36749;37.428;-121.972;2023-08-06T04:46:12;29.00;;;6.70;;
50781;SDS011;36749;37.428;-121.972;2023-08-06T04:48:38;23.05;;;6.53;;
50781;SDS011;36749;37.428;-121.972;2023-08-06T04:51:04;27.17;;;6.18;;
50781;SDS011;36749;37.428;-121.972;2023-08-06T04:53:31;33.08;;;7.38;;
50781;SDS011;36749;37.428;-121.972;2023-08-06T04:55:57;25.52;;;6.72;;
50781;SDS011;36749;37.428;-121.972;2023-08-06T04:58:23;24.25;;;6.80;;
50781;SDS011;36749;37.428;-121.972;2023-08-06T05:00:49;22.17;;;6.05;;
50781;SDS011;36749;37.428;-121.972;2023-08-06T05:03:15;24.40;;;5.65;;
50781;SDS011;36749;37.428;-121.972;2023-08-06T05:05:41;19.08;;;5.43;;
50781;SDS011;36749;37.428;-121.972;2023-08-06T05:08:13;19.50;;;5.75;;
50781;SDS011;36749;37.428;-121.972;2023-08-06T05:10:42;26.23;;;5.85;;
50781;SDS011;36749;37.428;-121.972;2023-08-06T05:13:09;21.40;;;5.70;;
50781;SDS011;36749;37.428;-121.972;2023-08-06T05:15:35;21.50;;;6.38;;
50781;SDS011;36749;37.428;-121.972;2023-08-06T05:18:01;19.80;;;5.72;;
50781;SDS011;36749;37.428;-121.972;2023-08-06T05:20:28;21.00;;;5.55;;
50781;SDS011;36749;37.428;-121.972;2023-08-06T05:22:54;24.23;;;6.18;;
50781;SDS011;36749;37.428;-121.972;2023-08-06T05:25:20;25.70;;;6.28;;
50781;SDS011;36749;37.428;-121.972;2023-08-06T05:27:46;23.27;;;6.85;;
50781;SDS011;36749;37.428;-121.972;2023-08-06T05:30:13;20.48;;;5.75;;
50781;SDS011;36749;37.428;-121.972;2023-08-06T05:32:39;29.70;;;9.05;;
50781;SDS011;36749;37.428;-121.972;2023-08-06T05:35:05;42.90;;;18.73;;
50781;SDS011;36749;37.428;-121.972;2023-08-06T05:37:32;45.92;;;23.00;;
50781;SDS011;36749;37.428;-121.972;2023-08-06T05:39:58;42.75;;;22.88;;
50781;SDS011;36749;37.428;-121.972;2023-08-06T05:42:24;42.20;;;17.27;;
50781;SDS011;36749;37.428;-121.972;2023-08-06T05:44:50;28.45;;;10.25;;
50781;SDS011;36749;37.428;-121.972;2023-08-06T05:47:17;26.75;;;8.32;;
50781;SDS011;36749;37.428;-121.972;2023-08-06T05:49:45;21.42;;;6.80;;
50781;SDS011;36749;37.428;-121.972;2023-08-06T05:52:11;24.85;;;6.65;;
50781;SDS011;36749;37.428;-121.972;2023-08-06T05:54:37;21.40;;;6.68;;
50781;SDS011;36749;37.428;-121.972;2023-08-06T05:57:05;23.85;;;7.43;;
50781;SDS011;36749;37.428;-121.972;2023-08-06T05:59:32;28.30;;;7.32;;
50781;SDS011;36749;37.428;-121.972;2023-08-06T06:01:58;22.80;;;7.07;;
50781;SDS011;36749;37.428;-121.972;2023-08-06T06:04:24;21.80;;;6.20;;
50781;SDS011;36749;37.428;-121.972;2023-08-06T06:06:51;21.13;;;6.57;;
50781;SDS011;36749;37.428;-121.972;2023-08-06T06:09:17;22.42;;;6.40;;
50781;SDS011;36749;37.428;-121.972;2023-08-06T06:11:43;25.15;;;6.93;;
50781;SDS011;36749;37.428;-121.972;2023-08-06T06:14:10;23.77;;;6.03;;
50781;SDS011;36749;37.428;-121.972;2023-08-06T06:16:36;18.58;;;5.80;;
50781;SDS011;36749;37.428;-121.972;2023-08-06T06:19:02;20.00;;;7.22;;
50781;SDS011;36749;37.428;-121.972;2023-08-06T06:21:28;33.67;;;12.30;;
50781;SDS011;36749;37.428;-121.972;2023-08-06T06:23:55;46.50;;;15.68;;
50781;SDS011;36749;37.428;-121.972;2023-08-06T06:26:21;26.23;;;9.15;;
50781;SDS011;36749;37.428;-121.972;2023-08-06T06:28:48;22.73;;;6.97;;
50781;SDS011;36749;37.428;-121.972;2023-08-06T06:31:14;24.27;;;6.53;;
50781;SDS011;36749;37.428;-121.972;2023-08-06T06:33:40;19.67;;;6.57;;
50781;SDS011;36749;37.428;-121.972;2023-08-06T06:36:07;24.77;;;7.03;;
50781;SDS011;36749;37.428;-121.972;2023-08-06T06:38:36;29.60;;;9.95;;
50781;SDS011;36749;37.428;-121.972;2023-08-06T06:41:02;34.58;;;11.75;;
50781;SDS011;36749;37.428;-121.972;2023-08-06T06:43:28;26.75;;;8.60;;
50781;SDS011;36749;37.428;-121.972;2023-08-06T06:46:01;28.00;;;8.07;;
50781;SDS011;36749;37.428;-121.972;2023-08-06T06:48:28;21.65;;;7.60;;
50781;SDS011;36749;37.428;-121.972;2023-08-06T06:50:55;28.35;;;6.90;;
50781;SDS011;36749;37.428;-121.972;2023-08-06T06:53:22;27.48;;;12.30;;
50781;SDS011;36749;37.428;-121.972;2023-08-06T06:56:11;28.50;;;14.95;;
50781;SDS011;36749;37.428;-121.972;2023-08-06T06:58:38;28.60;;;16.30;;
50781;SDS011;36749;37.428;-121.972;2023-08-06T07:01:06;31.98;;;12.63;;
50781;SDS011;36749;37.428;-121.972;2023-08-06T07:03:33;24.10;;;7.00;;
50781;SDS011;36749;37.428;-121.972;2023-08-06T07:05:59;22.27;;;7.40;;
50781;SDS011;36749;37.428;-121.972;2023-08-06T07:08:25;21.55;;;7.35;;
50781;SDS011;36749;37.428;-121.972;2023-08-06T07:10:59;19.35;;;6.25;;
50781;SDS011;36749;37.428;-121.972;2023-08-06T07:13:27;24.30;;;7.47;;
50781;SDS011;36749;37.428;-121.972;2023-08-06T07:15:54;20.33;;;5.85;;
50781;SDS011;36749;37.428;-121.972;2023-08-06T07:18:20;19.98;;;5.60;;
50781;SDS011;36749;37.428;-121.972;2023-08-06T07:20:50;27.60;;;7.38;;
50781;SDS011;36749;37.428;-121.972;2023-08-06T07:23:18;20.42;;;5.60;;
50781;SDS011;36749;37.428;-121.972;2023-08-06T07:25:47;26.15;;;6.93;;
50781;SDS011;36749;37.428;-121.972;2023-08-06T07:28:14;20.17;;;5.80;;
50781;SDS011;36749;37.428;-121.972;2023-08-06T07:30:41;19.90;;;6.15;;
50781;SDS011;36749;37.428;-121.972;2023-08-06T07:33:08;23.73;;;6.15;;
50781;SDS011;36749;37.428;-121.972;2023-08-06T07:35:34;22.52;;;5.95;;
50781;SDS011;36749;37.428;-121.972;2023-08-06T07:38:01;20.55;;;5.25;;
50781;SDS011;36749;37.428;-121.972;2023-08-06T07:40:27;20.80;;;6.22;;
50781;SDS011;36749;37.428;-121.972;2023-08-06T07:42:54;19.80;;;6.00;;
50781;SDS011;36749;37.428;-121.972;2023-08-06T07:45:20;21.48;;;6.35;;
50781;SDS011;36749;37.428;-121.972;2023-08-06T07:47:47;25.80;;;6.95;;
50781;SDS011;36749;37.428;-121.972;2023-08-06T07:50:13;22.67;;;6.40;;
50781;SDS011;36749;37.428;-121.972;2023-08-06T07:52:39;26.83;;;6.80;;
50781;SDS011;36749;37.428;-121.972;2023-08-06T07:55:06;22.33;;;6.30;;
50781;SDS011;36749;37.428;-121.972;2023-08-06T07:57:32;21.23;;;5.38;;
50781;SDS011;36749;37.428;-121.972;2023-08-06T07:59:59;25.05;;;6.25;;
50781;SDS011;36749;37.428;-121.972;2023-08-06T08:02:27;22.38;;;5.88;;
50781;SDS011;36749;37.428;-121.972;2023-08-06T08:04:53;27.45;;;7.13;;
50781;SDS011;36749;37.428;-121.972;2023-08-06T08:07:19;22.55;;;6.55;;
50781;SDS011;36749;37.428;-121.972;2023-08-06T08:09:46;23.88;;;6.30;;
50781;SDS011;36749;37.428;-121.972;2023-08-06T08:12:13;29.10;;;7.00;;
50781;SDS011;36749;37.428;-121.972;2023-08-06T08:14:41;27.85;;;7.07;;
50781;SDS011;36749;37.428;-121.972;2023-08-06T08:17:10;21.35;;;6.57;;
50781;SDS011;36749;37.428;-121.972;2023-08-06T08:19:37;22.50;;;6.53;;
50781;SDS011;36749;37.428;-121.972;2023-08-06T08:22:03;22.77;;;6.63;;
50781;SDS011;36749;37.428;-121.972;2023-08-06T08:24:29;22.10;;;6.30;;
50781;SDS011;36749;37.428;-121.972;2023-08-06T08:26:56;25.13;;;6.97;;
50781;SDS011;36749;37.428;-121.972;2023-08-06T08:29:22;27.40;;;7.18;;
50781;SDS011;36749;37.428;-121.972;2023-08-06T08:31:49;24.05;;;6.65;;
50781;SDS011;36749;37.428;-121.972;2023-08-06T08:34:16;25.55;;;7.03;;
50781;SDS011;36749;37.428;-121.972;2023-08-06T08:36:42;21.10;;;6.65;;
50781;SDS011;36749;37.428;-121.972;2023-08-06T08:39:08;24.27;;;7.15;;
50781;SDS011;36749;37.428;-121.972;2023-08-06T08:41:36;23.85;;;6.78;;
50781;SDS011;36749;37.428;-121.972;2023-08-06T08:44:22;22.15;;;6.43;;
50781;SDS011;36749;37.428;-121.972;2023-08-06T08:46:53;23.73;;;6.45;;
50781;SDS011;36749;37.428;-121.972;2023-08-06T08:49:20;24.17;;;6.65;;
50781;SDS011;36749;37.428;-121.972;2023-08-06T08:51:47;22.92;;;6.70;;
50781;SDS011;36749;37.428;-121.972;2023-08-06T08:54:14;22.27;;;6.63;;
50781;SDS011;36749;37.428;-121.972;2023-08-06T08:56:41;31.35;;;7.70;;
50781;SDS011;36749;37.428;-121.972;2023-08-06T08:59:07;26.67;;;6.55;;
50781;SDS011;36749;37.428;-121.972;2023-08-06T09:01:35;27.50;;;7.18;;
50781;SDS011;36749;37.428;-121.972;2023-08-06T09:04:01;23.02;;;6.53;;
50781;SDS011;36749;37.428;-121.972;2023-08-06T09:06:28;25.63;;;6.03;;
50781;SDS011;36749;37.428;-121.972;2023-08-06T09:09:01;26.08;;;7.18;;
50781;SDS011;36749;37.428;-121.972;2023-08-06T09:11:35;27.02;;;7.07;;
50781;SDS011;36749;37.428;-121.972;2023-08-06T09:14:06;28.35;;;6.35;;
50781;SDS011;36749;37.428;-121.972;2023-08-06T09:16:36;27.30;;;6.40;;
50781;SDS011;36749;37.428;-121.972;2023-08-06T09:19:08;31.73;;;7.50;;
50781;SDS011;36749;37.428;-121.972;2023-08-06T09:21:42;21.90;;;6.07;;
50781;SDS011;36749;37.428;-121.972;2023-08-06T09:24:12;29.80;;;6.72;;
50781;SDS011;36749;37.428;-121.972;2023-08-06T09:26:39;19.67;;;5.78;;
50781;SDS011;36749;37.428;-121.972;2023-08-06T09:29:06;24.40;;;6.30;;
50781;SDS011;36749;37.428;-121.972;2023-08-06T09:31:33;28.92;;;7.50;;
50781;SDS011;36749;37.428;-121.972;2023-08-06T09:34:06;30.85;;;6.57;;
50781;SDS011;36749;37.428;-121.972;2023-08-06T09:36:47;26.63;;;7.00;;
50781;SDS011;36749;37.428;-121.972;2023-08-06T09:39:16;30.77;;;7.35;;
50781;SDS011;36749;37.428;-121.972;2023-08-06T09:41:47;26.58;;;7.07;;
50781;SDS011;36749;37.428;-121.972;2023-08-06T09:44:17;25.75;;;6.20;;
50781;SDS011;36749;37.428;-121.972;2023-08-06T09:46:54;32.92;;;8.13;;
50781;SDS011;36749;37.428;-121.972;2023-08-06T09:49:28;24.98;;;7.57;;
50781;SDS011;36749;37.428;-121.972;2023-08-06T09:51:54;30.33;;;7.03;;
50781;SDS011;36749;37.428;-121.972;2023-08-06T09:54:23;26.98;;;6.53;;
50781;SDS011;36749;37.428;-121.972;2023-08-06T09:56:52;22.52;;;6.47;;
50781;SDS011;36749;37.428;-121.972;2023-08-06T09:59:22;28.05;;;6.55;;
50781;SDS011;36749;37.428;-121.972;2023-08-06T10:01:49;22.15;;;5.72;;
50781;SDS011;36749;37.428;-121.972;2023-08-06T10:04:15;22.27;;;6.07;;
50781;SDS011;36749;37.428;-121.972;2023-08-06T10:06:43;27.40;;;6.43;;
50781;SDS011;36749;37.428;-121.972;2023-08-06T10:09:13;23.52;;;6.40;;
50781;SDS011;36749;37.428;-121.972;2023-08-06T10:11:40;37.33;;;6.82;;
50781;SDS011;36749;37.428;-121.972;2023-08-06T10:14:41;24.92;;;6.20;;
50781;SDS011;36749;37.428;-121.972;2023-08-06T10:17:01;25.92;;;6.93;;
50781;SDS011;36749;37.428;-121.972;2023-08-06T10:19:28;29.67;;;6.78;;
50781;SDS011;36749;37.428;-121.972;2023-08-06T10:22:07;25.70;;;7.00;;
50781;SDS011;36749;37.428;-121.972;2023-08-06T10:24:46;28.05;;;6.03;;
50781;SDS011;36749;37.428;-121.972;2023-08-06T10:27:16;21.58;;;5.53;;
50781;SDS011;36749;37.428;-121.972;2023-08-06T10:29:55;32.88;;;8.23;;
50781;SDS011;36749;37.428;-121.972;2023-08-06T10:32:21;22.55;;;6.28;;
50781;SDS011;36749;37.428;-121.972;2023-08-06T10:34:54;25.13;;;6.97;;
50781;SDS011;36749;37.428;-121.972;2023-08-06T10:37:24;23.80;;;6.60;;
50781;SDS011;36749;37.428;-121.972;2023-08-06T10:39:54;28.63;;;6.35;;
50781;SDS011;36749;37.428;-121.972;2023-08-06T10:42:27;36.67;;;6.68;;
50781;SDS011;36749;37.428;-121.972;2023-08-06T10:47:42;20.38;;;5.75;;
50781;SDS011;36749;37.428;-121.972;2023-08-06T10:50:15;26.05;;;6.50;;
50781;SDS011;36749;37.428;-121.972;2023-08-06T10:52:43;25.02;;;6.40;;
50781;SDS011;36749;37.428;-121.972;2023-08-06T10:55:10;24.15;;;6.32;;
50781;SDS011;36749;37.428;-121.972;2023-08-06T10:57:36;24.60;;;6.38;;
50781;SDS011;36749;37.428;-121.972;2023-08-06T11:00:06;26.17;;;6.90;;
50781;SDS011;36749;37.428;-121.972;2023-08-06T11:02:34;25.58;;;6.25;;
50781;SDS011;36749;37.428;-121.972;2023-08-06T11:05:07;26.13;;;6.28;;
50781;SDS011;36749;37.428;-121.972;2023-08-06T11:07:34;24.42;;;6.38;;
50781;SDS011;36749;37.428;-121.972;2023-08-06T11:10:04;29.50;;;7.07;;
50781;SDS011;36749;37.428;-121.972;2023-08-06T11:12:32;27.77;;;7.72;;
50781;SDS011;36749;37.428;-121.972;2023-08-06T11:14:59;27.67;;;6.72;;
50781;SDS011;36749;37.428;-121.972;2023-08-06T11:17:27;22.02;;;6.07;;
50781;SDS011;36749;37.428;-121.972;2023-08-06T11:19:54;22.58;;;6.68;;
50781;SDS011;36749;37.428;-121.972;2023-08-06T11:22:21;26.20;;;6.80;;
50781;SDS011;36749;37.428;-121.972;2023-08-06T11:24:48;24.40;;;7.50;;
50781;SDS011;36749;37.428;-121.972;2023-08-06T11:27:14;28.85;;;6.72;;
50781;SDS011;36749;37.428;-121.972;2023-08-06T11:29:42;22.30;;;6.38;;
50781;SDS011;36749;37.428;-121.972;2023-08-06T11:32:09;23.48;;;6.53;;
50781;SDS011;36749;37.428;-121.972;2023-08-06T11:34:35;25.52;;;6.88;;
50781;SDS011;36749;37.428;-121.972;2023-08-06T11:37:03;23.40;;;5.82;;
50781;SDS011;36749;37.428;-121.972;2023-08-06T11:39:33;17.80;;;6.28;;
50781;SDS011;36749;37.428;-121.972;2023-08-06T11:41:59;19.67;;;6.03;;
50781;SDS011;36749;37.428;-121.972;2023-08-06T11:44:29;23.88;;;6.20;;
50781;SDS011;36749;37.428;-121.972;2023-08-06T11:46:58;24.88;;;6.55;;
50781;SDS011;36749;37.428;-121.972;2023-08-06T11:52:16;26.58;;;5.80;;
50781;SDS011;36749;37.428;-121.972;2023-08-06T11:54:59;22.42;;;6.38;;
50781;SDS011;36749;37.428;-121.972;2023-08-06T11:57:29;23.80;;;6.57;;
50781;SDS011;36749;37.428;-121.972;2023-08-06T12:00:07;26.80;;;6.68;;
50781;SDS011;36749;37.428;-121.972;2023-08-06T12:02:41;25.40;;;6.70;;
50781;SDS011;36749;37.428;-121.972;2023-08-06T12:07:38;22.17;;;6.20;;
50781;SDS011;36749;37.428;-121.972;2023-08-06T12:10:06;23.17;;;6.82;;
50781;SDS011;36749;37.428;-121.972;2023-08-06T12:12:36;22.02;;;6.35;;
50781;SDS011;36749;37.428;-121.972;2023-08-06T12:15:04;19.88;;;5.70;;
50781;SDS011;36749;37.428;-121.972;2023-08-06T12:17:31;24.98;;;6.35;;
50781;SDS011;36749;37.428;-121.972;2023-08-06T12:19:58;22.83;;;7.13;;
50781;SDS011;36749;37.428;-121.972;2023-08-06T12:22:24;29.08;;;7.80;;
50781;SDS011;36749;37.428;-121.972;2023-08-06T12:24:50;29.48;;;7.03;;
50781;SDS011;36749;37.428;-121.972;2023-08-06T12:27:17;28.00;;;6.78;;
50781;SDS011;36749;37.428;-121.972;2023-08-06T12:29:44;25.63;;;6.93;;
50781;SDS011;36749;37.428;-121.972;2023-08-06T12:32:11;31.08;;;7.63;;
50781;SDS011;36749;37.428;-121.972;2023-08-06T12:34:38;23.15;;;5.68;;
50781;SDS011;36749;37.428;-121.972;2023-08-06T12:37:05;27.17;;;6.70;;
50781;SDS011;36749;37.428;-121.972;2023-08-06T12:39:32;30.48;;;7.03;;
50781;SDS011;36749;37.428;-121.972;2023-08-06T12:41:59;27.05;;;7.07;;
50781;SDS011;36749;37.428;-121.972;2023-08-06T12:44:30;26.38;;;6.60;;
50781;SDS011;36749;37.428;-121.972;2023-08-06T12:46:56;22.67;;;6.60;;
50781;SDS011;36749;37.428;-121.972;2023-08-06T12:49:23;27.33;;;7.18;;
50781;SDS011;36749;37.428;-121.972;2023-08-06T12:51:51;26.75;;;7.07;;
50781;SDS011;36749;37.428;-121.972;2023-08-06T12:54:19;24.88;;;7.13;;
50781;SDS011;36749;37.428;-121.972;2023-08-06T12:56:46;24.27;;;7.78;;
50781;SDS011;36749;37.428;-121.972;2023-08-06T12:59:13;29.27;;;7.57;;
50781;SDS011;36749;37.428;-121.972;2023-08-06T13:01:41;24.63;;;6.68;;
50781;SDS011;36749;37.428;-121.972;2023-08-06T13:04:08;21.20;;;6.45;;
50781;SDS011;36749;37.428;-121.972;2023-08-06T13:06:34;30.50;;;7.70;;
50781;SDS011;36749;37.428;-121.972;2023-08-06T13:09:08;23.23;;;6.70;;
50781;SDS011;36749;37.428;-121.972;2023-08-06T13:11:35;26.60;;;7.07;;
50781;SDS011;36749;37.428;-121.972;2023-08-06T13:14:07;27.70;;;6.93;;
50781;SDS011;36749;37.428;-121.972;2023-08-06T13:16:35;28.85;;;7.65;;
50781;SDS011;36749;37.428;-121.972;2023-08-06T13:19:02;28.30;;;7.20;;
50781;SDS011;36749;37.428;-121.972;2023-08-06T13:24:08;34.90;;;7.72;;
50781;SDS011;36749;37.428;-121.972;2023-08-06T13:26:34;27.95;;;7.28;;
50781;SDS011;36749;37.428;-121.972;2023-08-06T13:29:01;22.63;;;6.40;;
50781;SDS011;36749;37.428;-121.972;2023-08-06T13:31:28;21.05;;;6.05;;
50781;SDS011;36749;37.428;-121.972;2023-08-06T13:33:54;24.95;;;6.63;;
50781;SDS011;36749;37.428;-121.972;2023-08-06T13:36:23;22.15;;;5.95;;
50781;SDS011;36749;37.428;-121.972;2023-08-06T13:38:52;20.45;;;6.15;;
50781;SDS011;36749;37.428;-121.972;2023-08-06T13:41:18;26.02;;;7.20;;
50781;SDS011;36749;37.428;-121.972;2023-08-06T13:43:45;24.13;;;6.63;;
50781;SDS011;36749;37.428;-121.972;2023-08-06T13:46:11;25.23;;;6.90;;
50781;SDS011;36749;37.428;-121.972;2023-08-06T13:48:46;19.20;;;6.25;;
50781;SDS011;36749;37.428;-121.972;2023-08-06T13:51:13;24.58;;;5.85;;
50781;SDS011;36749;37.428;-121.972;2023-08-06T13:53:39;24.27;;;6.00;;
50781;SDS011;36749;37.428;-121.972;2023-08-06T13:56:06;21.17;;;5.40;;
50781;SDS011;36749;37.428;-121.972;2023-08-06T13:58:35;22.70;;;5.88;;
50781;SDS011;36749;37.428;-121.972;2023-08-06T14:01:01;22.98;;;6.75;;
50781;SDS011;36749;37.428;-121.972;2023-08-06T14:03:28;23.30;;;5.82;;
50781;SDS011;36749;37.428;-121.972;2023-08-06T14:05:54;26.02;;;6.00;;
50781;SDS011;36749;37.428;-121.972;2023-08-06T14:08:23;21.17;;;6.55;;
50781;SDS011;36749;37.428;-121.972;2023-08-06T14:10:50;21.48;;;6.05;;
50781;SDS011;36749;37.428;-121.972;2023-08-06T14:13:17;20.45;;;6.03;;
50781;SDS011;36749;37.428;-121.972;2023-08-06T14:15:44;21.55;;;5.82;;
50781;SDS011;36749;37.428;-121.972;2023-08-06T14:18:12;23.42;;;6.63;;